EST,Max TemperatureF,Mean TemperatureF,Min TemperatureF,Max Dew PointF,MeanDew PointF,Min DewpointF,Max Humidity, Mean Humidity, Min Humidity, Max Sea Level PressureIn, Mean Sea Level PressureIn, Min Sea Level PressureIn, Max VisibilityMiles, Mean VisibilityMiles, Min VisibilityMiles, Max Wind SpeedMPH, Mean Wind SpeedMPH, Max Gust SpeedMPH,PrecipitationIn, CloudCover, Events, WindDirDegrees
2013-11-1,,,,,,,,,,,,,,,,,,,,,,
2013-11-2,,,,,,,,,,,,,,,,,,,,,,
2013-11-3,,,,,,,,,,,,,,,,,,,,,,
2013-11-4,,,,,,,,,,,,,,,,,,,,,,
2013-11-5,54,48,43,32,29,24,53,45,41,30.47,30.39,30.33,10,10,10,5,4,,0.00,1,,150
2013-11-6,66,54,43,55,44,24,94,69,44,30.29,30.05,29.87,10,9,2,16,7,24,0.34,5,Rain,206
2013-11-7,57,45,33,54,35,26,96,81,58,30.10,30.01,29.87,10,8,2,18,10,28,0.41,8,Rain-Snow,276
2013-11-8,37,34,32,32,30,24,96,83,62,30.29,30.15,30.02,10,7,0,14,8,18,0.21,7,Fog-Snow,250
2013-11-9,53,42,30,36,28,24,76,58,37,30.27,30.05,29.89,10,10,8,15,6,26,0.01,4,Rain,199
2013-11-10,50,44,37,37,31,27,73,63,55,30.25,30.05,29.89,10,10,10,18,12,32,0.01,7,Rain,267
2013-11-11,44,36,28,36,30,26,93,81,51,30.24,30.11,30.00,10,7,1,15,8,24,0.17,8,Rain-Snow,267
2013-11-12,30,28,26,27,22,18,93,79,59,30.45,30.33,30.13,10,6,0,14,8,23,0.08,7,Fog-Snow,321
2013-11-13,34,30,26,23,20,17,88,72,54,30.50,30.41,30.28,10,8,1,14,7,23,0.07,6,Snow,255
2013-11-14,46,36,27,19,18,16,69,49,31,30.27,30.20,30.14,10,10,10,17,12,24,0.00,0,,203
2013-11-15,51,44,36,28,20,17,56,40,26,30.16,30.13,30.09,10,10,10,16,9,22,0.00,0,,198
2013-11-16,57,48,39,44,38,29,79,65,55,30.24,30.13,29.99,10,10,10,9,5,20,0.00,2,,177
2013-11-17,59,55,51,56,51,40,94,87,61,29.97,29.77,29.44,10,8,2,21,8,44,0.78,8,Rain,184
2013-11-18,51,42,33,37,31,22,73,65,59,30.05,29.80,29.56,10,10,10,22,16,37,0.01,7,Rain,261
2013-11-19,36,32,27,26,23,21,78,66,59,30.43,30.26,30.06,10,10,10,13,8,20,0.00,7,,310
2013-11-20,44,35,26,21,15,10,81,50,26,30.49,30.42,30.38,10,10,10,9,4,,0.00,0,,98
2013-11-21,43,38,33,36,28,13,93,69,42,30.43,30.35,30.23,10,10,6,7,4,,0.11,6,Rain,127
2013-11-22,48,40,33,46,40,25,100,91,72,30.26,30.15,30.06,10,5,0,17,6,28,0.21,8,Fog-Rain-Snow,260
2013-11-23,33,25,17,25,18,10,93,79,59,30.31,30.20,30.10,10,4,0,21,10,31,0.00,7,Fog-Snow,296
2013-11-24,21,18,15,16,13,8,93,78,60,30.50,30.37,30.25,10,3,0,18,12,29,0.00,8,Fog-Snow,283
2013-11-25,30,21,12,23,12,8,85,65,43,30.46,30.29,30.14,10,9,2,16,8,30,0.01,5,Snow,201
2013-11-26,32,30,28,30,28,23,100,90,78,30.17,29.98,29.76,10,3,0,14,6,20,0.02,8,Fog-Snow,225
2013-11-27,30,26,21,29,21,14,93,84,65,30.07,29.82,29.70,10,4,0,17,9,28,0.00,8,Fog-Snow,302
2013-11-28,24,22,19,18,17,13,93,81,62,30.41,30.25,30.06,10,7,1,12,8,18,0.00,7,Snow,233
2013-11-29,28,24,19,22,18,14,96,76,58,30.68,30.57,30.37,10,8,2,8,3,,0.09,6,Snow,291
2013-11-30,35,27,19,22,19,15,85,70,54,30.62,30.41,30.21,10,10,10,7,4,,0.15,1,,165